Time;durP1;ratioP1;P1;durP2;ratioP2;P2;SDS_P1;SDS_P2;PMS_P1;PMS_P2;Temp;Humidity;BMP_temperature;BMP_pressure;BME280_temperature;BME280_humidity;BME280_pressure;Samples;Min_cycle;Max_cycle;Signal;HPM_P1;HPM_P2
2023/09/09 00:01:21;;;;;;;14.60;13.00;;;17.20;99.90;;;;;;5117191;28;20023;-77
2023/09/09 00:03:47;;;;;;;17.15;14.60;;;17.20;99.90;;;;;;5117132;28;20119;-77
2023/09/09 00:06:13;;;;;;;16.45;13.63;;;17.30;99.90;;;;;;5116630;28;20036;-79
2023/09/09 00:08:40;;;;;;;18.00;14.23;;;17.40;99.90;;;;;;5117116;28;20031;-77
2023/09/09 00:11:06;;;;;;;15.50;13.82;;;17.20;99.90;;;;;;5117293;28;20030;-77
2023/09/09 00:13:31;;;;;;;15.30;13.00;;;17.20;99.90;;;;;;5117508;28;20431;-77
2023/09/09 00:15:57;;;;;;;15.63;12.35;;;17.20;99.90;;;;;;5117447;28;20351;-77
2023/09/09 00:18:23;;;;;;;17.13;13.10;;;17.10;99.90;;;;;;5117369;28;20031;-76
2023/09/09 00:20:49;;;;;;;18.05;14.20;;;17.20;99.90;;;;;;5116685;28;20535;-77
2023/09/09 00:23:14;;;;;;;17.35;14.13;;;17.10;99.90;;;;;;5117319;28;20039;-76
2023/09/09 00:25:42;;;;;;;16.00;14.30;;;17.10;99.90;;;;;;5117071;28;20358;-76
2023/09/09 00:28:10;;;;;;;17.88;13.75;;;17.10;99.90;;;;;;5117244;28;20449;-76
2023/09/09 00:30:36;;;;;;;16.20;13.40;;;17.00;99.90;;;;;;5116499;28;20019;-77
2023/09/09 00:33:02;;;;;;;16.52;13.70;;;16.90;99.90;;;;;;5116436;28;20016;-77
2023/09/09 00:35:28;;;;;;;17.38;14.98;;;16.90;99.90;;;;;;5117026;28;20030;-77
2023/09/09 00:37:54;;;;;;;16.58;14.63;;;17.10;99.90;;;;;;5116703;28;20065;-77
2023/09/09 00:40:20;;;;;;;16.25;14.10;;;16.90;99.90;;;;;;5116973;28;20035;-77
2023/09/09 00:42:46;;;;;;;16.33;14.02;;;16.70;99.90;;;;;;5116585;28;20089;-77
2023/09/09 00:45:11;;;;;;;15.32;13.73;;;16.80;99.90;;;;;;5116225;28;20036;-77
2023/09/09 00:47:38;;;;;;;16.88;14.25;;;16.80;99.90;;;;;;5116587;28;20036;-77
2023/09/09 00:50:05;;;;;;;20.70;15.38;;;16.80;99.90;;;;;;5115558;28;20043;-77
2023/09/09 00:52:32;;;;;;;16.80;14.93;;;16.80;99.90;;;;;;5116422;28;20065;-77
2023/09/09 00:54:58;;;;;;;18.98;15.60;;;16.80;99.90;;;;;;5116404;28;20027;-76
2023/09/09 00:57:26;;;;;;;20.90;15.48;;;16.80;99.90;;;;;;5116589;28;20023;-76
2023/09/09 00:59:52;;;;;;;21.13;15.30;;;16.70;99.90;;;;;;5116436;28;20031;-77
2023/09/09 01:02:17;;;;;;;20.67;14.88;;;16.70;99.90;;;;;;5116273;28;20035;-77
2023/09/09 01:04:43;;;;;;;17.02;15.02;;;16.70;99.90;;;;;;5116079;28;20369;-76
2023/09/09 01:07:09;;;;;;;19.17;15.57;;;16.60;99.90;;;;;;5116393;28;20027;-77
2023/09/09 01:09:35;;;;;;;19.88;16.08;;;16.60;99.90;;;;;;5116217;28;20119;-77
2023/09/09 01:12:01;;;;;;;17.92;15.50;;;16.60;99.90;;;;;;5115883;28;20016;-77
2023/09/09 01:14:26;;;;;;;17.27;14.70;;;16.60;99.90;;;;;;5115900;28;20462;-76
2023/09/09 01:16:53;;;;;;;17.98;14.50;;;17.00;99.90;;;;;;5115175;28;20080;-76
2023/09/09 01:19:21;;;;;;;16.98;15.05;;;16.60;99.90;;;;;;5116139;28;20126;-76
2023/09/09 01:21:47;;;;;;;18.23;14.60;;;16.60;99.90;;;;;;5115937;28;20111;-77
2023/09/09 01:24:15;;;;;;;16.42;14.68;;;16.60;99.90;;;;;;5115131;28;20122;-77
2023/09/09 01:26:42;;;;;;;20.25;15.55;;;16.50;99.90;;;;;;5115688;28;20034;-76
2023/09/09 01:29:07;;;;;;;19.67;15.07;;;16.60;99.90;;;;;;5115919;28;20024;-77
2023/09/09 01:31:33;;;;;;;18.60;14.65;;;16.60;99.90;;;;;;5116155;28;20373;-77
2023/09/09 01:33:58;;;;;;;17.52;14.60;;;16.60;99.90;;;;;;5115483;28;20533;-77
2023/09/09 01:36:24;;;;;;;16.67;13.90;;;16.50;99.90;;;;;;5116180;28;20031;-77
2023/09/09 01:38:50;;;;;;;17.10;14.07;;;16.50;99.90;;;;;;5116419;28;20027;-77
2023/09/09 01:41:16;;;;;;;15.40;13.82;;;16.50;99.90;;;;;;5116273;28;20019;-77
2023/09/09 01:43:41;;;;;;;19.48;15.43;;;16.50;99.90;;;;;;5115772;28;20024;-77
2023/09/09 01:46:07;;;;;;;18.05;15.13;;;16.50;99.90;;;;;;5117309;28;20024;-76
2023/09/09 01:48:32;;;;;;;15.32;13.73;;;16.40;99.90;;;;;;5116391;28;20039;-76
2023/09/09 01:50:58;;;;;;;17.77;15.18;;;16.40;99.90;;;;;;5117234;28;20077;-77
2023/09/09 01:53:24;;;;;;;16.80;15.00;;;16.40;99.90;;;;;;5117058;28;20016;-76
2023/09/09 01:55:49;;;;;;;18.20;15.27;;;16.40;99.90;;;;;;5117130;28;20035;-76
2023/09/09 01:58:15;;;;;;;18.35;15.23;;;16.30;99.90;;;;;;5116154;28;20495;-76
2023/09/09 02:00:42;;;;;;;15.65;14.02;;;16.30;99.90;;;;;;5115813;28;20054;-76
2023/09/09 02:03:07;;;;;;;19.77;15.20;;;16.30;99.90;;;;;;5115186;28;20438;-77
2023/09/09 02:05:33;;;;;;;18.63;15.85;;;16.30;99.90;;;;;;5115548;28;20019;-77
2023/09/09 02:07:59;;;;;;;16.05;13.95;;;16.30;99.90;;;;;;5114707;28;20042;-77
2023/09/09 02:10:25;;;;;;;17.05;15.15;;;16.20;99.90;;;;;;5114802;28;20020;-77
2023/09/09 02:12:50;;;;;;;18.67;15.85;;;16.20;99.90;;;;;;5114951;28;20036;-77
2023/09/09 02:15:16;;;;;;;19.50;16.42;;;16.20;99.90;;;;;;5114761;28;20020;-77
2023/09/09 02:17:42;;;;;;;16.98;14.80;;;16.20;99.90;;;;;;5114894;28;20030;-77
2023/09/09 02:20:09;;;;;;;19.08;15.30;;;16.20;99.90;;;;;;5114696;28;20365;-77
2023/09/09 02:22:35;;;;;;;22.75;17.15;;;16.10;99.90;;;;;;5114844;28;20097;-77
2023/09/09 02:25:00;;;;;;;18.75;15.88;;;16.10;99.90;;;;;;5114328;28;20432;-77
2023/09/09 02:27:26;;;;;;;18.05;15.70;;;16.20;99.90;;;;;;5114998;28;20119;-79
2023/09/09 02:29:52;;;;;;;18.73;16.38;;;16.20;99.90;;;;;;5114653;28;20056;-77
2023/09/09 02:32:18;;;;;;;17.63;14.90;;;16.20;99.90;;;;;;5114543;28;20019;-77
2023/09/09 02:34:44;;;;;;;16.27;13.40;;;16.20;99.90;;;;;;5114287;28;20043;-77
2023/09/09 02:37:14;;;;;;;20.88;16.13;;;16.10;99.90;;;;;;5114871;28;20477;-77
2023/09/09 02:39:41;;;;;;;18.48;13.32;;;16.20;99.90;;;;;;5113590;28;20035;-77
2023/09/09 02:42:09;;;;;;;15.68;13.73;;;16.10;99.90;;;;;;5114274;28;20027;-77
2023/09/09 02:44:35;;;;;;;15.15;13.55;;;16.00;99.90;;;;;;5114375;28;20019;-77
2023/09/09 02:47:00;;;;;;;16.70;14.48;;;16.00;99.90;;;;;;5114683;28;20418;-77
2023/09/09 02:49:26;;;;;;;15.60;14.00;;;16.00;99.90;;;;;;5113859;28;20554;-77
2023/09/09 02:51:51;;;;;;;15.75;13.60;;;16.00;99.90;;;;;;5114261;28;20027;-77
2023/09/09 02:54:17;;;;;;;16.42;14.07;;;16.00;99.90;;;;;;5114447;28;20035;-77
2023/09/09 02:56:43;;;;;;;17.77;14.98;;;15.90;99.90;;;;;;5114274;28;20059;-77
2023/09/09 02:59:08;;;;;;;18.70;14.70;;;15.90;99.90;;;;;;5113901;28;20053;-77
2023/09/09 03:01:34;;;;;;;16.55;14.75;;;15.80;99.90;;;;;;5114062;28;20027;-77
2023/09/09 03:04:00;;;;;;;15.65;13.73;;;15.80;99.90;;;;;;5114469;28;20035;-77
2023/09/09 03:06:25;;;;;;;18.05;14.50;;;15.80;99.90;;;;;;5113873;28;20038;-77
2023/09/09 03:08:51;;;;;;;18.77;14.88;;;15.70;99.90;;;;;;5114060;28;20081;-77
2023/09/09 03:11:16;;;;;;;18.25;14.30;;;15.70;99.90;;;;;;5113575;28;20053;-77
2023/09/09 03:13:42;;;;;;;19.98;15.55;;;15.70;99.90;;;;;;5114412;28;20103;-77
2023/09/09 03:16:08;;;;;;;24.20;16.48;;;15.70;99.90;;;;;;5114153;28;20023;-77
2023/09/09 03:18:34;;;;;;;16.30;14.15;;;15.70;99.90;;;;;;5114435;28;20024;-77
2023/09/09 03:20:59;;;;;;;16.48;13.55;;;15.70;99.90;;;;;;5114112;28;20481;-77
2023/09/09 03:23:25;;;;;;;16.73;13.95;;;15.70;99.90;;;;;;5114406;28;20404;-77
2023/09/09 03:25:50;;;;;;;18.48;15.20;;;15.60;99.90;;;;;;5113971;28;20016;-77
2023/09/09 03:28:16;;;;;;;22.00;16.67;;;15.60;99.90;;;;;;5114584;28;20501;-77
2023/09/09 03:30:58;;;;;;;17.75;14.57;;;15.60;99.90;;;;;;5113370;28;20165;-77
2023/09/09 03:33:24;;;;;;;17.30;15.00;;;15.60;99.90;;;;;;5117991;28;20091;-77
2023/09/09 03:35:50;;;;;;;19.20;15.55;;;15.60;99.90;;;;;;5118262;28;20361;-77
2023/09/09 03:38:16;;;;;;;18.38;14.52;;;15.60;99.90;;;;;;5117539;28;20023;-77
2023/09/09 03:40:43;;;;;;;19.45;14.88;;;15.60;99.90;;;;;;5117538;28;20034;-77
2023/09/09 03:43:08;;;;;;;17.77;13.88;;;15.60;99.90;;;;;;5117013;28;20028;-76
2023/09/09 03:45:34;;;;;;;18.92;14.63;;;15.60;99.90;;;;;;5117458;28;20035;-76
2023/09/09 03:48:00;;;;;;;18.08;14.52;;;15.60;99.90;;;;;;5117158;28;20041;-77
2023/09/09 03:50:25;;;;;;;15.70;13.20;;;15.60;99.90;;;;;;5116753;28;20139;-77
2023/09/09 03:52:51;;;;;;;15.45;13.50;;;15.60;99.90;;;;;;5117591;28;20073;-77
2023/09/09 03:55:17;;;;;;;16.33;13.85;;;15.60;99.90;;;;;;5117249;28;20020;-77
2023/09/09 03:57:43;;;;;;;16.15;12.82;;;15.60;99.90;;;;;;5117600;28;20016;-77
2023/09/09 04:00:10;;;;;;;16.38;13.63;;;15.50;99.90;;;;;;5117913;28;20028;-77
2023/09/09 04:02:35;;;;;;;16.23;14.38;;;15.50;99.90;;;;;;5117494;28;20385;-77
2023/09/09 04:05:01;;;;;;;15.95;14.27;;;15.50;99.90;;;;;;5117127;28;20027;-77
2023/09/09 04:07:27;;;;;;;16.05;13.95;;;15.50;99.90;;;;;;5117399;28;20072;-77
2023/09/09 04:09:53;;;;;;;17.08;13.40;;;15.50;99.90;;;;;;5117228;28;20028;-77
2023/09/09 04:12:19;;;;;;;15.43;13.25;;;15.40;99.90;;;;;;5117621;28;20370;-76
2023/09/09 04:14:45;;;;;;;18.45;13.90;;;15.40;99.90;;;;;;5116814;28;20016;-77
2023/09/09 04:17:10;;;;;;;16.52;14.50;;;15.40;99.90;;;;;;5117154;28;20448;-76
2023/09/09 04:19:36;;;;;;;17.75;13.88;;;15.40;99.90;;;;;;5117058;28;20355;-77
2023/09/09 04:22:02;;;;;;;15.73;12.75;;;15.40;99.90;;;;;;5116133;28;20023;-76
2023/09/09 04:24:27;;;;;;;17.98;13.93;;;15.40;99.90;;;;;;5116817;28;20039;-76
2023/09/09 04:26:53;;;;;;;16.08;13.88;;;15.40;99.90;;;;;;5117398;28;20023;-76
2023/09/09 04:29:19;;;;;;;15.77;13.88;;;15.30;99.90;;;;;;5116787;28;20115;-76
2023/09/09 04:31:47;;;;;;;15.63;13.98;;;15.30;99.90;;;;;;5116925;28;20051;-76
2023/09/09 04:34:13;;;;;;;16.02;14.15;;;15.20;99.90;;;;;;5116598;28;20031;-76
2023/09/09 04:36:40;;;;;;;16.27;13.90;;;15.30;99.90;;;;;;5115845;28;20038;-76
2023/09/09 04:39:05;;;;;;;17.50;13.98;;;15.20;99.90;;;;;;5116406;28;20028;-76
2023/09/09 04:41:31;;;;;;;14.52;12.63;;;15.20;99.90;;;;;;5116105;28;20045;-76
2023/09/09 04:43:56;;;;;;;17.42;14.70;;;15.10;99.90;;;;;;5116351;28;20041;-76
2023/09/09 04:46:22;;;;;;;17.95;14.50;;;15.10;99.90;;;;;;5115671;28;20035;-76
2023/09/09 04:48:52;;;;;;;19.05;14.73;;;15.10;99.90;;;;;;5115679;28;20050;-76
2023/09/09 04:51:17;;;;;;;16.33;13.85;;;15.10;99.90;;;;;;5115586;28;20069;-76
2023/09/09 04:53:43;;;;;;;15.70;13.15;;;15.10;99.90;;;;;;5116711;28;20027;-75
2023/09/09 04:56:09;;;;;;;17.25;14.25;;;15.10;99.90;;;;;;5116367;28;20073;-76
2023/09/09 04:58:35;;;;;;;18.30;14.35;;;15.10;99.90;;;;;;5116642;28;20031;-76
2023/09/09 05:01:00;;;;;;;18.23;14.23;;;15.10;99.90;;;;;;5116248;28;20109;-76
2023/09/09 05:03:26;;;;;;;17.95;14.85;;;15.20;99.90;;;;;;5116302;28;20037;-76
2023/09/09 05:05:52;;;;;;;19.92;15.77;;;15.20;99.90;;;;;;5115382;28;20366;-76
2023/09/09 05:08:17;;;;;;;17.13;14.65;;;15.20;99.90;;;;;;5116266;28;20153;-76
2023/09/09 05:10:44;;;;;;;19.20;15.77;;;15.10;99.90;;;;;;5115783;28;20024;-76
2023/09/09 05:13:09;;;;;;;21.63;16.55;;;15.20;99.90;;;;;;5115908;28;20024;-76
2023/09/09 05:15:35;;;;;;;17.85;15.25;;;15.20;99.90;;;;;;5116119;28;20034;-76
2023/09/09 05:18:01;;;;;;;16.45;14.48;;;15.30;99.90;;;;;;5115494;28;20124;-76
2023/09/09 05:20:27;;;;;;;18.52;15.75;;;15.30;99.90;;;;;;5114911;28;20020;-76
2023/09/09 05:22:52;;;;;;;19.13;13.90;;;15.40;99.90;;;;;;5116013;28;20028;-76
2023/09/09 05:25:18;;;;;;;18.50;14.70;;;15.40;99.90;;;;;;5115761;28;20032;-77
2023/09/09 05:27:44;;;;;;;16.08;14.27;;;15.50;99.90;;;;;;5115344;28;20076;-77
2023/09/09 05:30:10;;;;;;;16.50;14.55;;;15.60;99.90;;;;;;5115715;28;20630;-77
2023/09/09 05:32:36;;;;;;;19.63;14.48;;;15.60;99.90;;;;;;5115728;28;20026;-76
2023/09/09 05:35:02;;;;;;;16.55;14.20;;;15.70;99.90;;;;;;5115688;28;20016;-73
2023/09/09 05:37:30;;;;;;;20.95;15.27;;;15.80;99.90;;;;;;5115471;28;20023;-78
2023/09/09 05:39:56;;;;;;;20.65;16.25;;;15.90;99.90;;;;;;5115027;28;20464;-72
2023/09/09 05:42:22;;;;;;;19.80;15.50;;;15.90;99.90;;;;;;5115146;28;20023;-73
2023/09/09 05:44:48;;;;;;;16.60;14.82;;;16.10;99.90;;;;;;5115083;28;20024;-72
2023/09/09 05:47:14;;;;;;;17.35;15.55;;;16.20;99.90;;;;;;5114905;28;20036;-72
2023/09/09 05:49:40;;;;;;;18.55;16.65;;;16.60;99.90;;;;;;5114735;28;20061;-73
2023/09/09 05:52:06;;;;;;;17.08;14.57;;;17.30;99.90;;;;;;5114601;28;20027;-72
2023/09/09 05:54:31;;;;;;;16.27;13.15;;;18.20;99.90;;;;;;5114935;28;20024;-74
2023/09/09 05:56:57;;;;;;;12.60;10.68;;;19.30;99.90;;;;;;5115232;28;20030;-74
2023/09/09 05:59:23;;;;;;;11.30;10.10;;;20.60;99.90;;;;;;5115065;28;20369;-75
2023/09/09 06:01:49;;;;;;;13.10;10.30;;;21.60;99.90;;;;;;5114392;28;20023;-74
2023/09/09 06:04:16;;;;;;;12.20;10.50;;;21.80;23.80;;;;;;5115280;28;20031;-75
2023/09/09 06:06:44;;;;;;;11.95;10.75;;;21.50;1.00;;;;;;5115039;28;20031;-75
2023/09/09 06:09:11;;;;;;;12.68;11.18;;;20.90;1.00;;;;;;5115158;28;20477;-74
2023/09/09 06:11:36;;;;;;;12.23;10.93;;;20.60;1.00;;;;;;5115471;28;20020;-74
2023/09/09 06:14:02;;;;;;;13.68;11.20;;;20.80;28.80;;;;;;5114662;28;20385;-74
2023/09/09 06:16:28;;;;;;;12.13;10.77;;;21.30;1.00;;;;;;5114450;28;20110;-74
2023/09/09 06:18:54;;;;;;;13.15;10.90;;;21.60;1.00;;;;;;5114885;28;20020;-75
2023/09/09 06:21:20;;;;;;;12.00;10.05;;;21.70;1.00;;;;;;5114464;28;20211;-75
2023/09/09 06:23:46;;;;;;;11.43;9.45;;;22.50;1.00;;;;;;5114857;28;20110;-75
2023/09/09 06:26:12;;;;;;;13.65;9.48;;;23.50;99.90;;;;;;5115115;28;20478;-75
2023/09/09 06:28:37;;;;;;;12.25;8.40;;;24.60;1.00;;;;;;5115044;28;20463;-75
2023/09/09 06:31:03;;;;;;;13.32;9.75;;;25.40;1.00;;;;;;5114012;28;20477;-75
2023/09/09 06:33:29;;;;;;;11.65;8.88;;;26.00;1.00;;;;;;5113992;28;20473;-75
2023/09/09 06:35:55;;;;;;;10.07;9.05;;;26.40;99.90;;;;;;5114824;28;20085;-75
2023/09/09 06:38:21;;;;;;;10.05;8.13;;;27.00;99.90;;;;;;5114461;28;20358;-75
2023/09/09 06:40:47;;;;;;;11.48;7.90;;;27.90;99.90;;;;;;5114910;28;20063;-75
2023/09/09 06:43:16;;;;;;;9.20;8.25;;;28.40;1.00;;;;;;5114775;28;20525;-73
2023/09/09 06:45:41;;;;;;;9.60;8.68;;;29.00;99.90;;;;;;5114202;28;20053;-75
2023/09/09 06:48:07;;;;;;;8.93;8.02;;;28.50;99.90;;;;;;5113579;28;20028;-72
2023/09/09 06:50:33;;;;;;;10.27;8.45;;;27.80;1.00;;;;;;5114169;28;20123;-75
2023/09/09 06:52:58;;;;;;;9.25;7.72;;;28.40;99.90;;;;;;5114288;28;20036;-76
2023/09/09 06:55:24;;;;;;;9.15;7.30;;;28.60;99.90;;;;;;5114596;28;20028;-76
2023/09/09 06:57:50;;;;;;;10.77;8.05;;;29.00;1.00;;;;;;5114347;28;20516;-76
2023/09/09 07:00:16;;;;;;;8.90;8.10;;;28.60;1.00;;;;;;5113829;28;20027;-76
2023/09/09 07:02:42;;;;;;;7.65;7.00;;;28.10;99.90;;;;;;5114467;28;20024;-76
2023/09/09 07:05:07;;;;;;;10.18;7.20;;;29.30;1.00;;;;;;5114670;28;20030;-75
2023/09/09 07:07:33;;;;;;;7.85;7.00;;;29.40;1.00;;;;;;5118575;28;20031;-75
2023/09/09 07:09:59;;;;;;;10.50;7.18;;;29.30;1.00;;;;;;5118637;28;20024;-75
2023/09/09 07:12:25;;;;;;;8.95;7.45;;;28.70;1.00;;;;;;5118425;28;20026;-75
2023/09/09 07:14:51;;;;;;;9.65;7.80;;;28.50;1.00;;;;;;5118300;28;20049;-75
2023/09/09 07:17:16;;;;;;;8.77;7.82;;;28.80;1.00;;;;;;5117769;28;20388;-75
2023/09/09 07:19:42;;;;;;;8.00;6.80;;;29.40;99.90;;;;;;5118306;28;20062;-75
2023/09/09 07:22:08;;;;;;;8.80;7.30;;;30.10;99.90;;;;;;5117440;28;20502;-75
2023/09/09 07:24:33;;;;;;;8.15;7.40;;;30.00;99.90;;;;;;5117968;28;20107;-75
2023/09/09 07:27:03;;;;;;;9.45;7.63;;;30.00;99.90;;;;;;5118132;28;20035;-75
2023/09/09 07:29:29;;;;;;;7.93;7.15;;;29.90;99.90;;;;;;5117671;28;20024;-75
2023/09/09 07:31:55;;;;;;;8.85;7.95;;;30.20;99.90;;;;;;5118151;28;20015;-75
2023/09/09 07:34:21;;;;;;;8.55;7.50;;;29.90;99.90;;;;;;5118239;28;20149;-75
2023/09/09 07:36:47;;;;;;;9.85;6.97;;;30.00;99.90;;;;;;5118023;28;20475;-75
2023/09/09 07:39:14;;;;;;;7.90;6.82;;;31.30;99.90;;;;;;5117613;28;20027;-76
2023/09/09 07:41:39;;;;;;;9.05;7.30;;;31.20;99.90;;;;;;5117840;28;20119;-75
2023/09/09 07:44:06;;;;;;;9.57;7.45;;;31.10;99.90;;;;;;5117875;28;20499;-76
2023/09/09 07:46:32;;;;;;;8.43;7.13;;;29.70;99.90;;;;;;5117183;28;20092;-75
2023/09/09 07:48:58;;;;;;;9.48;6.97;;;29.50;99.90;;;;;;5116883;28;20039;-75
2023/09/09 07:51:24;;;;;;;10.55;7.82;;;29.20;1.00;;;;;;5117083;28;20488;-75
2023/09/09 07:53:49;;;;;;;8.30;7.15;;;29.10;1.00;;;;;;5117782;28;20533;-76
2023/09/09 07:56:15;;;;;;;10.75;7.35;;;29.50;99.90;;;;;;5117526;28;20031;-76
2023/09/09 07:58:40;;;;;;;8.32;7.47;;;29.60;99.90;;;;;;5117516;28;20501;-75
2023/09/09 08:01:07;;;;;;;10.20;7.57;;;29.70;99.90;;;;;;5117645;28;20031;-75
2023/09/09 08:03:34;;;;;;;9.10;6.97;;;29.30;1.00;;;;;;5116454;28;20027;-75
2023/09/09 08:06:02;;;;;;;8.55;7.75;;;30.00;1.00;;;;;;5117418;28;20469;-75
2023/09/09 08:08:29;;;;;;;8.70;7.75;;;30.50;1.00;;;;;;5117441;28;20035;-76
2023/09/09 08:10:55;;;;;;;9.88;7.38;;;30.60;1.00;;;;;;5117113;28;20084;-75
2023/09/09 08:13:20;;;;;;;8.93;6.90;;;30.50;1.00;;;;;;5116854;28;20114;-75
2023/09/09 08:15:46;;;;;;;8.23;7.20;;;31.30;99.90;;;;;;5117587;28;20525;-76
2023/09/09 08:18:13;;;;;;;7.35;6.65;;;31.50;99.90;;;;;;5115881;28;20031;-76
2023/09/09 08:20:39;;;;;;;10.48;7.55;;;31.70;99.90;;;;;;5117277;28;20036;-76
2023/09/09 08:23:04;;;;;;;9.25;7.47;;;31.20;99.90;;;;;;5117075;28;20028;-76
2023/09/09 08:25:32;;;;;;;10.82;6.65;;;30.90;99.90;;;;;;5116090;28;20034;-75
2023/09/09 08:27:59;;;;;;;10.35;7.43;;;31.30;99.90;;;;;;5116262;28;20028;-76
2023/09/09 08:30:25;;;;;;;7.95;7.20;;;31.80;99.90;;;;;;5115936;28;20027;-76
2023/09/09 08:32:51;;;;;;;8.60;7.65;;;32.70;99.90;;;;;;5117104;28;20571;-76
2023/09/09 08:35:17;;;;;;;8.13;7.40;;;31.80;99.90;;;;;;5117369;28;20059;-75
2023/09/09 08:37:42;;;;;;;10.63;7.93;;;31.20;99.90;;;;;;5116095;28;20024;-76
2023/09/09 08:40:09;;;;;;;9.68;7.50;;;30.90;99.90;;;;;;5117091;28;20031;-76
2023/09/09 08:43:11;;;;;;;7.82;6.75;;;31.00;99.90;;;;;;5116996;28;20031;-76
2023/09/09 08:45:49;;;;;;;10.97;7.73;;;32.10;99.90;;;;;;5116204;28;20484;-75
2023/09/09 08:48:18;;;;;;;9.63;6.88;;;32.10;99.90;;;;;;5115941;28;20019;-75
2023/09/09 08:50:47;;;;;;;9.75;8.40;;;33.10;45.60;;;;;;5115904;28;20031;-75
2023/09/09 08:53:16;;;;;;;10.48;6.90;;;32.70;1.00;;;;;;5116642;28;20073;-76
2023/09/09 08:55:41;;;;;;;9.55;6.65;;;32.30;13.20;;;;;;5116410;28;20030;-75
2023/09/09 08:58:08;;;;;;;10.70;6.93;;;31.70;43.70;;;;;;5115952;28;20020;-75
2023/09/09 09:00:35;;;;;;;7.55;6.78;;;31.40;55.30;;;;;;5115617;28;20055;-75
2023/09/09 09:03:02;;;;;;;10.48;6.78;;;31.60;63.10;;;;;;5116542;28;20030;-77
2023/09/09 09:05:31;;;;;;;8.60;6.63;;;31.40;68.70;;;;;;5116767;28;20032;-77
2023/09/09 09:07:57;;;;;;;8.85;7.13;;;32.30;48.00;;;;;;5115720;28;20085;-76
2023/09/09 09:10:23;;;;;;;9.60;7.20;;;31.60;45.20;;;;;;5116082;28;20040;-76
2023/09/09 09:12:49;;;;;;;10.13;7.18;;;31.70;30.00;;;;;;5115473;28;20103;-76
2023/09/09 09:15:14;;;;;;;8.68;6.97;;;32.00;63.20;;;;;;5116082;28;20023;-76
2023/09/09 09:17:42;;;;;;;11.18;6.97;;;31.90;26.70;;;;;;5116066;28;20023;-77
2023/09/09 09:20:24;;;;;;;9.45;6.53;;;31.90;44.70;;;;;;5115938;28;20376;-77
2023/09/09 09:22:50;;;;;;;9.10;7.50;;;31.20;45.00;;;;;;5116218;28;20111;-77
2023/09/09 09:25:23;;;;;;;9.60;7.15;;;31.50;74.40;;;;;;5116426;28;20027;-76
2023/09/09 09:27:49;;;;;;;8.57;6.90;;;32.40;67.80;;;;;;5115616;28;20027;-77
2023/09/09 09:30:21;;;;;;;8.85;7.10;;;32.80;17.90;;;;;;5114580;28;20028;-77
2023/09/09 09:32:50;;;;;;;12.20;7.83;;;32.60;10.00;;;;;;5116454;28;20065;-76
2023/09/09 09:35:32;;;;;;;8.25;7.30;;;32.20;12.00;;;;;;5115477;28;20019;-77
2023/09/09 09:37:59;;;;;;;10.80;7.55;;;31.80;47.80;;;;;;5116040;28;20509;-77
2023/09/09 09:40:27;;;;;;;9.18;7.60;;;31.70;99.90;;;;;;5115916;28;20380;-77
2023/09/09 09:42:53;;;;;;;12.65;7.38;;;32.60;99.90;;;;;;5115189;28;20032;-77
2023/09/09 09:45:24;;;;;;;7.93;7.28;;;32.50;75.20;;;;;;5115333;28;20503;-77
2023/09/09 09:47:51;;;;;;;9.18;8.10;;;32.60;99.90;;;;;;5115868;28;20458;-76
2023/09/09 09:50:22;;;;;;;9.55;7.32;;;32.00;99.90;;;;;;5114872;28;20123;-77
2023/09/09 09:52:57;;;;;;;9.60;7.57;;;32.30;99.90;;;;;;5115470;28;20466;-78
2023/09/09 09:55:22;;;;;;;10.85;8.00;;;32.10;99.90;;;;;;5115108;28;20500;-76
2023/09/09 09:57:49;;;;;;;10.18;7.88;;;31.70;99.90;;;;;;5115803;28;20023;-77
2023/09/09 10:00:15;;;;;;;11.02;8.13;;;32.30;99.90;;;;;;5115246;28;20072;-76
2023/09/09 10:02:42;;;;;;;10.02;7.57;;;32.30;99.90;;;;;;5115772;28;20054;-77
2023/09/09 10:05:14;;;;;;;10.05;7.28;;;32.30;99.90;;;;;;5115816;28;20047;-77
2023/09/09 10:07:45;;;;;;;11.07;7.82;;;32.70;99.90;;;;;;5116357;28;20377;-76
2023/09/09 10:10:15;;;;;;;10.63;7.70;;;32.90;99.90;;;;;;5116619;28;20027;-76
2023/09/09 10:12:56;;;;;;;9.43;8.10;;;32.40;99.90;;;;;;5116172;28;20141;-76
2023/09/09 10:15:24;;;;;;;11.20;8.35;;;32.10;99.90;;;;;;5116269;28;20031;-76
2023/09/09 10:17:51;;;;;;;9.85;8.00;;;32.40;99.90;;;;;;5116471;28;20489;-77
2023/09/09 10:20:18;;;;;;;10.27;7.75;;;33.30;99.90;;;;;;5116317;28;20468;-76
2023/09/09 10:22:45;;;;;;;11.13;7.25;;;34.30;1.00;;;;;;5121883;28;20024;-77
2023/09/09 10:25:12;;;;;;;11.68;7.63;;;34.00;1.00;;;;;;5124609;28;20066;-77
2023/09/09 10:27:39;;;;;;;10.13;7.15;;;34.00;1.00;;;;;;5116685;28;20024;-76
2023/09/09 10:30:07;;;;;;;9.30;7.30;;;34.20;1.00;;;;;;5115811;28;20031;-77
2023/09/09 10:32:35;;;;;;;12.20;7.80;;;33.90;1.00;;;;;;5115210;28;20464;-76
2023/09/09 10:35:05;;;;;;;10.05;7.30;;;33.40;1.00;;;;;;5114077;28;20024;-77
2023/09/09 10:37:33;;;;;;;10.98;7.82;;;33.30;1.00;;;;;;5115088;28;20028;-77
2023/09/09 10:39:59;;;;;;;9.20;6.78;;;33.20;1.00;;;;;;5114426;28;20383;-78
2023/09/09 10:42:25;;;;;;;10.30;7.22;;;33.50;1.00;;;;;;5114331;28;20046;-77
2023/09/09 10:44:53;;;;;;;7.88;7.05;;;33.40;1.00;;;;;;5114584;28;20065;-77
2023/09/09 10:47:19;;;;;;;12.05;6.82;;;33.50;1.00;;;;;;5114119;28;20106;-77
2023/09/09 10:49:45;;;;;;;9.23;6.63;;;33.60;1.00;;;;;;5113451;28;20138;-77
2023/09/09 10:52:32;;;;;;;9.55;6.80;;;33.40;1.00;;;;;;5114194;28;20051;-78
2023/09/09 10:55:13;;;;;;;12.07;6.07;;;33.20;1.00;;;;;;5114717;28;20485;-78
2023/09/09 10:57:39;;;;;;;8.70;6.20;;;33.00;1.00;;;;;;5114824;28;20441;-76
2023/09/09 11:00:06;;;;;;;7.40;6.03;;;33.30;1.00;;;;;;5114037;28;20031;-78
2023/09/09 11:02:47;;;;;;;9.15;7.25;;;33.10;1.00;;;;;;5113680;28;20039;-78
2023/09/09 11:05:15;;;;;;;8.05;6.05;;;32.90;1.00;;;;;;5114670;28;20031;-77
2023/09/09 11:07:43;;;;;;;8.82;6.72;;;33.10;1.00;;;;;;5114592;28;20043;-78
2023/09/09 11:10:14;;;;;;;8.15;5.90;;;32.90;1.00;;;;;;5114303;28;20032;-78
2023/09/09 11:12:49;;;;;;;9.10;6.32;;;32.90;1.00;;;;;;5114592;28;20030;-77
2023/09/09 11:15:15;;;;;;;8.45;6.78;;;33.20;1.00;;;;;;5114120;28;20028;-78
2023/09/09 11:17:43;;;;;;;10.75;6.57;;;33.20;1.00;;;;;;5114233;28;20046;-77
2023/09/09 11:20:11;;;;;;;8.98;6.82;;;32.70;1.00;;;;;;5114513;28;20354;-78
2023/09/09 11:22:38;;;;;;;9.90;6.53;;;32.60;1.00;;;;;;5113678;28;20036;-77
2023/09/09 11:25:05;;;;;;;10.32;7.05;;;32.60;1.00;;;;;;5114232;28;20030;-74
2023/09/09 11:27:32;;;;;;;7.50;6.65;;;32.70;1.00;;;;;;5114143;28;20066;-78
2023/09/09 11:29:58;;;;;;;12.57;7.30;;;32.40;1.00;;;;;;5114205;28;20023;-77
2023/09/09 11:32:26;;;;;;;8.18;6.93;;;32.10;1.00;;;;;;5114148;28;20115;-77
2023/09/09 11:34:53;;;;;;;7.90;6.30;;;31.90;1.00;;;;;;5113946;28;20020;-77
2023/09/09 11:37:19;;;;;;;7.50;6.60;;;31.70;1.00;;;;;;5114391;28;20027;-78
2023/09/09 11:39:45;;;;;;;9.50;6.60;;;31.60;1.00;;;;;;5114432;28;20106;-77
2023/09/09 11:42:11;;;;;;;9.73;6.60;;;31.70;1.00;;;;;;5114152;28;20556;-77
2023/09/09 11:44:40;;;;;;;9.75;6.90;;;31.70;1.00;;;;;;5114176;28;20500;-77
2023/09/09 11:47:07;;;;;;;10.70;7.43;;;31.70;1.00;;;;;;5114006;28;20469;-77
2023/09/09 11:49:33;;;;;;;8.40;6.53;;;31.50;1.00;;;;;;5113238;28;20075;-77
2023/09/09 11:52:00;;;;;;;8.65;7.07;;;31.50;1.00;;;;;;5114213;28;20062;-77
2023/09/09 11:54:26;;;;;;;8.15;7.35;;;31.70;1.00;;;;;;5117812;28;20024;-78
2023/09/09 11:57:06;;;;;;;8.80;6.82;;;32.10;1.00;;;;;;5117347;28;20016;-77
2023/09/09 11:59:44;;;;;;;9.65;6.78;;;32.30;1.00;;;;;;5118001;28;20019;-77
2023/09/09 12:02:26;;;;;;;9.68;6.68;;;32.40;1.00;;;;;;5117875;28;20036;-76
2023/09/09 12:04:54;;;;;;;18.13;6.50;;;32.20;1.00;;;;;;5117767;28;20473;-77
2023/09/09 12:07:21;;;;;;;22.15;7.10;;;32.40;1.00;;;;;;5117113;28;20023;-77
2023/09/09 12:09:47;;;;;;;14.57;7.32;;;32.30;1.00;;;;;;5117384;28;20124;-77
2023/09/09 12:12:14;;;;;;;15.80;6.78;;;32.30;1.00;;;;;;5117755;28;20460;-78
2023/09/09 12:14:40;;;;;;;12.77;6.60;;;32.10;1.00;;;;;;5117776;28;20030;-77
2023/09/09 12:17:05;;;;;;;13.55;6.53;;;32.30;1.00;;;;;;5117328;28;20469;-77
2023/09/09 12:19:31;;;;;;;12.20;6.22;;;32.20;1.50;;;;;;5117087;28;20027;-77
2023/09/09 12:21:57;;;;;;;20.55;6.78;;;32.40;1.00;;;;;;5117269;28;20036;-77
2023/09/09 12:24:22;;;;;;;18.20;7.93;;;31.70;1.00;;;;;;5117174;28;20031;-78
2023/09/09 12:26:52;;;;;;;16.50;7.15;;;31.40;8.30;;;;;;5117335;28;20067;-77
2023/09/09 12:29:18;;;;;;;17.88;7.60;;;31.80;43.50;;;;;;5117262;28;20027;-77
2023/09/09 12:31:54;;;;;;;17.52;7.28;;;32.00;66.80;;;;;;5116911;28;20522;-78
2023/09/09 12:34:20;;;;;;;19.58;7.85;;;31.60;22.00;;;;;;5116093;28;20019;-77
2023/09/09 12:36:48;;;;;;;18.83;7.38;;;31.40;18.80;;;;;;5117135;28;20367;-78